Time;durP1;ratioP1;P1;durP2;ratioP2;P2;SDS_P1;SDS_P2;PMS_P1;PMS_P2;Temp;Humidity;BMP_temperature;BMP_pressure;BME280_temperature;BME280_humidity;BME280_pressure;Samples;Min_cycle;Max_cycle;Signal;HPM_P1;HPM_P2
2023/04/01 00:00:25;;;;;;;;;;;;;;;19.09;100.00;98844.44;5112548;28;19924;-60
2023/04/01 00:02:50;;;;;;;;;;;;;;;19.42;100.00;98838.88;5096463;28;19923;-59
2023/04/01 00:05:16;;;;;;;;;;;;;;;18.95;100.00;98843.56;5117349;28;19951;-63
2023/04/01 00:07:41;;;;;;;;;;;;;;;18.74;100.00;98849.38;5113265;28;19928;-60
2023/04/01 00:10:08;;;;;;;;;;;;;;;18.17;100.00;98845.72;5111667;28;19916;-58
2023/04/01 00:12:35;;;;;;;;;;;;;;;18.87;100.00;98847.78;5111739;28;19920;-60
2023/04/01 00:15:00;;;;;;;;;;;;;;;18.83;100.00;98847.59;5112570;28;19979;-60
2023/04/01 00:17:27;;;;;;;;;;;;;;;18.81;100.00;98849.00;5111453;28;19916;-58
2023/04/01 00:19:54;;;;;;;;;;;;;;;18.64;100.00;98869.31;5117624;28;19923;-60
2023/04/01 00:22:20;;;;;;;;;;;;;;;18.63;100.00;98852.28;5117756;28;19923;-57
2023/04/01 00:24:45;;;;;;;;;;;;;;;18.48;100.00;98858.75;5115687;28;19916;-57
2023/04/01 00:27:10;;;;;;;;;;;;;;;19.54;100.00;98854.59;5115298;28;19987;-59
2023/04/01 00:29:36;;;;;;;;;;;;;;;18.93;100.00;98860.16;5121323;28;20379;-56
2023/04/01 00:32:02;;;;;;;;;;;;;;;19.00;100.00;98860.56;5120733;28;19948;-58
2023/04/01 00:34:27;;;;;;;;;;;;;;;18.99;100.00;98860.84;5110936;28;19916;-59
2023/04/01 00:36:52;;;;;;;;;;;;;;;18.49;100.00;98863.06;5099714;28;19915;-59
2023/04/01 00:39:19;;;;;;;;;;;;;;;18.11;100.00;98865.06;5123881;28;19915;-58
2023/04/01 00:41:44;;;;;;;;;;;;;;;18.26;100.00;98856.69;5120731;28;19927;-59
2023/04/01 00:44:27;;;;;;;;;;;;;;;19.06;100.00;98870.19;5121538;28;19916;-59
2023/04/01 00:46:53;;;;;;;;;;;;;;;18.30;100.00;98859.59;5102732;28;19924;-58
2023/04/01 00:49:20;;;;;;;;;;;;;;;18.45;100.00;98864.78;5121549;28;19931;-58
2023/04/01 00:51:47;;;;;;;;;;;;;;;18.50;100.00;98871.97;5095700;28;19920;-59
2023/04/01 00:54:15;;;;;;;;;;;;;;;17.94;100.00;98870.94;5116493;28;19941;-59
2023/04/01 00:56:44;;;;;;;;;;;;;;;17.87;100.00;98869.41;5098609;28;19926;-59
2023/04/01 00:59:13;;;;;;;;;;;;;;;18.60;100.00;98885.34;5098311;28;20395;-58
2023/04/01 01:01:39;;;;;;;;;;;;;;;18.59;100.00;98870.22;5101934;28;19926;-57
2023/04/01 01:04:05;;;;;;;;;;;;;;;18.03;100.00;98882.75;5137731;27;19919;-57
2023/04/01 01:06:39;;;;;;;;;;;;;;;18.71;100.00;98877.88;5117225;28;19983;-58
2023/04/01 01:09:12;;;;;;;;;;;;;;;18.94;100.00;98883.41;5102176;28;19924;-59
2023/04/01 01:11:54;;;;;;;;;;;;;;;17.65;100.00;98872.69;5118158;28;19916;-59
2023/04/01 01:14:38;;;;;;;;;;;;;;;16.87;100.00;98891.66;5102172;28;19919;-57
2023/04/01 01:17:22;;;;;;;;;;;;;;;17.36;100.00;98873.56;5113758;28;19920;-56
2023/04/01 01:19:48;;;;;;;;;;;;;;;17.70;100.00;98886.13;5119552;28;19923;-57
2023/04/01 01:22:21;;;;;;;;;;;;;;;17.59;100.00;98888.16;5119070;28;19979;-56
2023/04/01 01:24:59;;;;;;;;;;;;;;;17.99;100.00;98895.19;5114206;28;19926;-57
2023/04/01 01:27:25;;;;;;;;;;;;;;;17.54;100.00;98896.34;5117818;28;19916;-60
2023/04/01 01:30:17;;;;;;;;;;;;;;;17.14;100.00;98895.72;5103096;28;19930;-59
2023/04/01 01:32:51;;;;;;;;;;;;;;;17.18;100.00;98888.66;5113723;28;19916;-60
2023/04/01 01:35:37;;;;;;;;;;;;;;;17.22;100.00;98894.28;5097611;28;19975;-57
2023/04/01 01:38:09;;;;;;;;;;;;;;;17.74;100.00;98895.28;5103074;28;19927;-57
2023/04/01 01:40:36;;;;;;;;;;;;;;;18.52;100.00;98896.84;5099146;28;19927;-58
2023/04/01 01:43:06;;;;;;;;;;;;;;;18.05;100.00;98902.19;5114317;28;19920;-57
2023/04/01 01:45:35;;;;;;;;;;;;;;;17.82;100.00;98901.09;5132462;27;19916;-58
2023/04/01 01:48:02;;;;;;;;;;;;;;;17.82;100.00;98901.94;5116806;28;19923;-60
2023/04/01 01:50:28;;;;;;;;;;;;;;;18.05;100.00;98904.88;5113119;28;19954;-58
2023/04/01 01:53:05;;;;;;;;;;;;;;;17.68;100.00;98898.31;5100158;28;19951;-58
2023/04/01 01:55:33;;;;;;;;;;;;;;;18.17;100.00;98915.25;5129808;27;19965;-58
2023/04/01 01:58:00;;;;;;;;;;;;;;;17.62;100.00;98920.03;5096356;28;19947;-59
2023/04/01 02:00:27;;;;;;;;;;;;;;;17.44;100.00;98912.66;5097998;28;19931;-56
2023/04/01 02:02:53;;;;;;;;;;;;;;;18.41;100.00;98909.75;5096752;28;19954;-59
2023/04/01 02:05:20;;;;;;;;;;;;;;;17.44;100.00;98918.06;5095862;28;19924;-58
2023/04/01 02:07:49;;;;;;;;;;;;;;;17.55;100.00;98919.56;5095901;28;19934;-58
2023/04/01 02:10:15;;;;;;;;;;;;;;;17.73;100.00;98914.47;5114515;28;19939;-59
2023/04/01 02:12:44;;;;;;;;;;;;;;;17.57;100.00;98913.88;5096743;28;19970;-59
2023/04/01 02:15:12;;;;;;;;;;;;;;;17.69;100.00;98916.16;5098089;28;19947;-58
2023/04/01 02:17:39;;;;;;;;;;;;;;;17.39;100.00;98926.25;5094689;28;19947;-59
2023/04/01 02:20:31;;;;;;;;;;;;;;;17.57;100.00;98924.66;5101667;28;19916;-57
2023/04/01 02:22:59;;;;;;;;;;;;;;;17.57;100.00;98927.38;5093855;28;19950;-60
2023/04/01 02:25:28;;;;;;;;;;;;;;;16.90;100.00;98929.66;5098892;28;19917;-59
2023/04/01 02:27:55;;;;;;;;;;;;;;;17.22;100.00;98924.78;5093820;28;19916;-60
2023/04/01 02:30:21;;;;;;;;;;;;;;;16.85;100.00;98923.53;5098177;28;19946;-58
2023/04/01 02:32:46;;;;;;;;;;;;;;;17.75;100.00;98914.97;5095763;28;19916;-60
2023/04/01 02:35:15;;;;;;;;;;;;;;;18.24;100.00;98926.50;5099869;28;20003;-60
2023/04/01 02:37:42;;;;;;;;;;;;;;;17.24;100.00;98928.00;5099736;28;19916;-59
2023/04/01 02:40:09;;;;;;;;;;;;;;;17.47;100.00;98933.69;5096648;28;19939;-57
2023/04/01 02:42:34;;;;;;;;;;;;;;;17.91;100.00;98921.81;5097839;28;19931;-59
2023/04/01 02:45:00;;;;;;;;;;;;;;;17.54;100.00;98930.66;5098831;28;19920;-59
2023/04/01 02:47:25;;;;;;;;;;;;;;;16.60;100.00;98945.03;5100793;28;19917;-60
2023/04/01 02:49:50;;;;;;;;;;;;;;;17.52;100.00;98933.63;5105335;28;19946;-61
2023/04/01 02:52:16;;;;;;;;;;;;;;;17.18;100.00;98934.56;5137947;27;19943;-61
2023/04/01 02:54:41;;;;;;;;;;;;;;;17.72;100.00;98937.19;5100947;28;19924;-60
2023/04/01 02:57:06;;;;;;;;;;;;;;;17.63;100.00;98937.03;5124750;28;19916;-60
2023/04/01 02:59:32;;;;;;;;;;;;;;;17.38;100.00;98930.03;5120894;28;19958;-59
2023/04/01 03:01:58;;;;;;;;;;;;;;;17.82;100.00;98926.25;5133449;27;19927;-60
2023/04/01 03:04:24;;;;;;;;;;;;;;;17.66;100.00;98935.66;5119238;28;19951;-59
2023/04/01 03:06:49;;;;;;;;;;;;;;;16.68;100.00;98940.94;5118020;28;19946;-59
2023/04/01 03:09:15;;;;;;;;;;;;;;;16.92;100.00;98940.97;5119149;28;20477;-59
2023/04/01 03:11:41;;;;;;;;;;;;;;;16.57;100.00;98934.00;5122102;28;19951;-59
2023/04/01 03:14:06;;;;;;;;;;;;;;;16.57;100.00;98948.31;5100923;28;19916;-59
2023/04/01 03:16:32;;;;;;;;;;;;;;;16.58;100.00;98946.41;5099697;28;19922;-59
2023/04/01 03:18:59;;;;;;;;;;;;;;;17.18;100.00;98953.47;5139091;27;19923;-59
2023/04/01 03:21:25;;;;;;;;;;;;;;;17.31;100.00;98958.22;5133902;27;19921;-59
2023/04/01 03:23:50;;;;;;;;;;;;;;;17.26;100.00;98952.84;5096194;28;19972;-59
2023/04/01 03:26:16;;;;;;;;;;;;;;;17.19;100.00;98957.78;5113479;28;19955;-60
2023/04/01 03:28:42;;;;;;;;;;;;;;;17.31;100.00;98952.81;5099024;28;19923;-60
2023/04/01 03:31:09;;;;;;;;;;;;;;;16.85;100.00;98951.31;5124712;28;19930;-59
2023/04/01 03:33:41;;;;;;;;;;;;;;;17.53;100.00;98967.69;5098978;28;19924;-60
2023/04/01 03:36:07;;;;;;;;;;;;;;;17.57;100.00;98960.63;5118616;28;20065;-58
2023/04/01 03:38:34;;;;;;;;;;;;;;;17.51;100.00;98967.16;5117145;28;19916;-58
2023/04/01 03:41:00;;;;;;;;;;;;;;;16.69;100.00;98964.13;5095732;28;19954;-59
2023/04/01 03:43:26;;;;;;;;;;;;;;;17.09;100.00;98966.00;5096071;28;19916;-61
2023/04/01 03:45:52;;;;;;;;;;;;;;;17.47;100.00;98968.84;5094220;28;19920;-59
2023/04/01 03:48:18;;;;;;;;;;;;;;;17.20;100.00;98970.19;5113716;28;19924;-60
2023/04/01 03:50:43;;;;;;;;;;;;;;;16.99;100.00;98973.09;5095465;28;19959;-59
2023/04/01 03:53:09;;;;;;;;;;;;;;;17.59;100.00;98971.13;5116167;28;19971;-59
2023/04/01 03:55:40;;;;;;;;;;;;;;;17.30;100.00;98977.41;5098921;28;19927;-59
2023/04/01 03:58:07;;;;;;;;;;;;;;;17.25;100.00;98972.84;5095448;28;19916;-58
2023/04/01 04:00:33;;;;;;;;;;;;;;;16.96;100.00;98991.75;5100887;28;20318;-58
2023/04/01 04:02:59;;;;;;;;;;;;;;;17.20;100.00;98978.31;5100790;28;19924;-58
2023/04/01 04:05:30;;;;;;;;;;;;;;;17.27;100.00;98977.97;5132148;28;19919;-59
2023/04/01 04:07:56;;;;;;;;;;;;;;;16.99;100.00;98973.09;5096166;28;19951;-59
2023/04/01 04:10:24;;;;;;;;;;;;;;;17.16;100.00;98979.97;5116003;28;19915;-58
2023/04/01 04:12:50;;;;;;;;;;;;;;;17.27;100.00;98978.75;5136445;27;19915;-61
2023/04/01 04:15:17;;;;;;;;;;;;;;;17.36;100.00;98988.97;5104316;28;19983;-59
2023/04/01 04:17:46;;;;;;;;;;;;;;;17.31;100.00;98993.31;5107014;28;19916;-58
2023/04/01 04:20:13;;;;;;;;;;;;;;;17.34;100.00;99000.03;5101664;28;19924;-60
2023/04/01 04:22:39;;;;;;;;;;;;;;;16.75;100.00;98997.31;5136140;27;19926;-60
2023/04/01 04:25:07;;;;;;;;;;;;;;;17.25;100.00;99001.75;5108421;28;19916;-60
2023/04/01 04:27:33;;;;;;;;;;;;;;;17.14;100.00;99001.06;5105448;28;19930;-58
2023/04/01 04:30:06;;;;;;;;;;;;;;;17.33;100.00;99004.66;5104811;28;19976;-59
2023/04/01 04:32:32;;;;;;;;;;;;;;;17.40;100.00;99008.91;5098965;28;19962;-60
2023/04/01 04:34:58;;;;;;;;;;;;;;;17.65;100.00;99009.72;5118838;28;19924;-59
2023/04/01 04:37:25;;;;;;;;;;;;;;;17.30;100.00;99013.34;5135701;27;19916;-59
2023/04/01 04:39:51;;;;;;;;;;;;;;;17.87;100.00;99023.53;5102883;28;19954;-60
2023/04/01 04:42:17;;;;;;;;;;;;;;;17.59;100.00;99012.50;5100960;28;19923;-59
2023/04/01 04:44:42;;;;;;;;;;;;;;;17.26;100.00;99020.38;5104118;28;19916;-61
2023/04/01 04:47:10;;;;;;;;;;;;;;;17.63;100.00;99023.50;5137122;27;19916;-59
2023/04/01 04:49:35;;;;;;;;;;;;;;;17.38;100.00;99025.38;5124390;28;19916;-59
2023/04/01 04:52:05;;;;;;;;;;;;;;;17.76;100.00;99032.84;5133260;27;19923;-60
2023/04/01 04:54:31;;;;;;;;;;;;;;;17.88;100.00;99035.94;5100824;28;19916;-60
2023/04/01 04:56:59;;;;;;;;;;;;;;;18.28;100.00;99051.19;5132412;27;19924;-59
2023/04/01 04:59:27;;;;;;;;;;;;;;;18.28;100.00;99053.91;5100711;28;19927;-59
2023/04/01 05:02:01;;;;;;;;;;;;;;;18.09;100.00;99054.66;5103814;28;19950;-59
2023/04/01 05:04:27;;;;;;;;;;;;;;;18.56;100.00;99067.59;5137560;27;19919;-59
2023/04/01 05:06:53;;;;;;;;;;;;;;;17.88;100.00;99059.50;5117822;28;19924;-61
2023/04/01 05:09:19;;;;;;;;;;;;;;;17.94;100.00;99065.63;5141296;27;19931;-60
2023/04/01 05:11:45;;;;;;;;;;;;;;;18.62;100.00;99074.53;5118387;28;20065;-62
2023/04/01 05:14:16;;;;;;;;;;;;;;;18.11;100.00;99079.53;5102869;28;19920;-60
2023/04/01 05:16:49;;;;;;;;;;;;;;;18.11;100.00;99078.75;5139698;27;20002;-60
2023/04/01 05:19:14;;;;;;;;;;;;;;;17.85;100.00;99079.78;5123431;28;19923;-59
2023/04/01 05:21:40;;;;;;;;;;;;;;;18.57;100.00;99099.81;5123160;28;19920;-60
2023/04/01 05:24:07;;;;;;;;;;;;;;;18.12;100.00;99094.66;5120502;28;19916;-59
2023/04/01 05:26:33;;;;;;;;;;;;;;;18.38;100.00;99097.06;5138609;27;19916;-59
2023/04/01 05:28:58;;;;;;;;;;;;;;;18.74;100.00;99099.28;5099984;28;19951;-60
2023/04/01 05:31:25;;;;;;;;;;;;;;;18.29;100.00;99107.72;5100955;28;19916;-61
2023/04/01 05:33:51;;;;;;;;;;;;;;;18.29;100.00;99101.50;5134246;27;19923;-60
2023/04/01 05:36:16;;;;;;;;;;;;;;;18.60;100.00;99106.50;5100902;28;19959;-60
2023/04/01 05:38:43;;;;;;;;;;;;;;;18.99;100.00;99105.47;5098191;28;19916;-59
2023/04/01 05:41:11;;;;;;;;;;;;;;;18.27;100.00;99111.81;5100857;28;19927;-58
2023/04/01 05:43:41;;;;;;;;;;;;;;;18.12;100.00;99113.59;5134790;27;19924;-57
2023/04/01 05:46:27;;;;;;;;;;;;;;;17.84;100.00;99129.56;5124415;28;19941;-60
2023/04/01 05:48:58;;;;;;;;;;;;;;;18.22;100.00;99131.63;5097682;28;19916;-60
2023/04/01 05:51:24;;;;;;;;;;;;;;;18.11;100.00;99133.63;5133685;27;19920;-59
2023/04/01 05:53:50;;;;;;;;;;;;;;;18.17;100.00;99132.47;5118936;28;19923;-58
2023/04/01 05:56:16;;;;;;;;;;;;;;;18.38;100.00;99134.94;5125139;28;19944;-58
2023/04/01 05:58:50;;;;;;;;;;;;;;;18.03;100.00;99139.69;5135470;27;19916;-59
2023/04/01 06:01:15;;;;;;;;;;;;;;;18.33;100.00;99141.22;5099996;28;19920;-59
2023/04/01 06:03:42;;;;;;;;;;;;;;;18.67;100.00;99149.47;5105079;28;19916;-59
2023/04/01 06:06:34;;;;;;;;;;;;;;;18.42;100.00;99151.41;5101444;28;19912;-59
2023/04/01 06:09:17;;;;;;;;;;;;;;;18.33;100.00;99154.75;5101022;28;19915;-59
2023/04/01 06:12:07;;;;;;;;;;;;;;;18.37;100.00;99156.91;5145999;27;19920;-59
2023/04/01 06:14:48;;;;;;;;;;;;;;;18.63;100.00;99165.50;5101314;28;19931;-57
2023/04/01 06:17:26;;;;;;;;;;;;;;;18.41;100.00;99172.25;5102845;28;19949;-60
2023/04/01 06:20:08;;;;;;;;;;;;;;;18.28;100.00;99172.94;5132396;27;19916;-59
2023/04/01 06:22:36;;;;;;;;;;;;;;;18.49;100.00;99179.75;5140542;27;19920;-59
2023/04/01 06:25:27;;;;;;;;;;;;;;;18.40;100.00;99184.16;5133767;27;19916;-57
2023/04/01 06:27:53;;;;;;;;;;;;;;;18.29;100.00;99182.69;5098752;28;20354;-57
2023/04/01 06:30:24;;;;;;;;;;;;;;;18.38;100.00;99186.34;5100672;28;19924;-58
2023/04/01 06:33:03;;;;;;;;;;;;;;;18.01;100.00;99191.34;5131869;27;19922;-58
2023/04/01 06:36:02;;;;;;;;;;;;;;;18.31;100.00;99202.94;5097575;28;19916;-58
2023/04/01 06:38:46;;;;;;;;;;;;;;;18.42;100.00;99200.91;5060735;28;19916;-58
2023/04/01 06:41:51;;;;;;;;;;;;;;;18.42;100.00;99206.31;5135210;27;19920;-55
2023/04/01 06:44:25;;;;;;;;;;;;;;;18.31;100.00;99205.63;5040516;28;19965;-58
2023/04/01 06:47:23;;;;;;;;;;;;;;;18.22;100.00;99209.25;5054819;28;19997;-57
2023/04/01 06:50:23;;;;;;;;;;;;;;;18.16;100.00;99214.72;5083887;28;19935;-59
2023/04/01 06:53:13;;;;;;;;;;;;;;;18.11;100.00;99217.47;5116070;28;19922;-57
2023/04/01 06:56:14;;;;;;;;;;;;;;;17.22;100.00;99223.84;5121569;28;19922;-58
2023/04/01 06:58:52;;;;;;;;;;;;;;;17.27;100.00;99218.41;5135169;27;19990;-56
2023/04/01 07:01:42;;;;;;;;;;;;;;;17.75;100.00;99218.59;5117289;28;19942;-58
2023/04/01 07:04:20;;;;;;;;;;;;;;;17.46;100.00;99224.75;5085753;28;19947;-54
2023/04/01 07:07:01;;;;;;;;;;;;;;;17.72;100.00;99237.25;5103210;28;19959;-57
2023/04/01 07:09:32;;;;;;;;;;;;;;;16.95;100.00;99236.63;5104738;28;19992;-58
2023/04/01 07:12:36;;;;;;;;;;;;;;;17.65;100.00;99232.19;5114934;28;19923;-57
2023/04/01 07:15:30;;;;;;;;;;;;;;;17.61;100.00;99239.22;5113285;28;19923;-55
2023/04/01 07:18:00;;;;;;;;;;;;;;;17.25;100.00;99248.38;5094455;28;19916;-59
2023/04/01 07:20:32;;;;;;;;;;;;;;;17.41;100.00;99254.50;5115629;28;19926;-59
2023/04/01 07:23:00;;;;;;;;;;;;;;;17.21;100.00;99255.44;5096747;28;19920;-58
2023/04/01 07:25:52;;;;;;;;;;;;;;;17.63;100.00;99267.59;5095305;28;19979;-58
2023/04/01 07:28:35;;;;;;;;;;;;;;;16.94;100.00;99267.41;5114110;28;19923;-58
2023/04/01 07:31:37;;;;;;;;;;;;;;;17.44;100.00;99269.34;5117671;28;19945;-54
2023/04/01 07:34:09;;;;;;;;;;;;;;;17.25;100.00;99277.31;5095466;28;19984;-59
2023/04/01 07:36:40;;;;;;;;;;;;;;;17.32;100.00;99285.91;5100187;28;19924;-58
2023/04/01 07:39:16;;;;;;;;;;;;;;;17.61;100.00;99290.59;5124138;28;19916;-59
2023/04/01 07:42:15;;;;;;;;;;;;;;;17.57;100.00;99293.06;5100616;28;19927;-59
2023/04/01 07:44:51;;;;;;;;;;;;;;;17.47;100.00;99298.50;5116212;28;20391;-59
2023/04/01 07:47:19;;;;;;;;;;;;;;;17.45;100.00;99297.97;5096824;28;19916;-59
2023/04/01 07:49:54;;;;;;;;;;;;;;;18.00;100.00;99305.19;5130053;28;19924;-60
2023/04/01 07:52:20;;;;;;;;;;;;;;;18.04;100.00;99308.97;5095934;28;19979;-60
2023/04/01 07:54:55;;;;;;;;;;;;;;;17.57;100.00;99305.75;5094760;28;19916;-60
2023/04/01 07:57:37;;;;;;;;;;;;;;;17.89;100.00;99315.28;5113190;28;19994;-59
2023/04/01 08:00:06;;;;;;;;;;;;;;;17.94;100.00;99322.53;5095109;28;19964;-59
2023/04/01 08:03:03;;;;;;;;;;;;;;;17.83;100.00;99325.31;5130419;28;19927;-60
2023/04/01 08:05:33;;;;;;;;;;;;;;;18.12;100.00;99330.00;5102566;28;19915;-59
2023/04/01 08:08:08;;;;;;;;;;;;;;;17.75;100.00;99334.84;5096685;28;19931;-59
2023/04/01 08:11:04;;;;;;;;;;;;;;;18.17;100.00;99340.78;5112264;28;19947;-60
2023/04/01 08:13:48;;;;;;;;;;;;;;;17.87;100.00;99353.41;5114989;28;19923;-61
2023/04/01 08:17:05;;;;;;;;;;;;;;;17.68;100.00;99344.34;5055889;28;19924;-60
2023/04/01 08:20:01;;;;;;;;;;;;;;;17.87;100.00;99352.59;5047865;28;19936;-59
2023/04/01 08:22:34;;;;;;;;;;;;;;;17.82;100.00;99353.47;5083560;28;19982;-59
2023/04/01 08:25:07;;;;;;;;;;;;;;;17.93;100.00;99359.59;5114780;28;20001;-60
2023/04/01 08:27:41;;;;;;;;;;;;;;;18.68;100.00;99365.78;5115083;28;19938;-58
2023/04/01 08:30:21;;;;;;;;;;;;;;;18.76;100.00;99373.28;5096801;28;19927;-58
2023/04/01 08:32:56;;;;;;;;;;;;;;;18.63;100.00;99373.94;5092780;28;19916;-59
2023/04/01 08:35:28;;;;;;;;;;;;;;;17.69;100.00;99373.00;5129090;28;19975;-59
2023/04/01 08:37:56;;;;;;;;;;;;;;;18.83;100.00;99381.09;5112720;28;19924;-58
2023/04/01 08:40:43;;;;;;;;;;;;;;;18.09;100.00;99381.16;5099162;28;19921;-59
2023/04/01 08:43:14;;;;;;;;;;;;;;;18.15;100.00;99391.66;5099073;28;19923;-58
2023/04/01 08:45:43;;;;;;;;;;;;;;;18.12;100.00;99384.13;5096999;28;19927;-58
2023/04/01 08:48:27;;;;;;;;;;;;;;;18.26;100.00;99392.41;5099676;28;19909;-59
2023/04/01 08:51:13;;;;;;;;;;;;;;;19.00;100.00;99398.81;5100991;28;19927;-59
2023/04/01 08:53:57;;;;;;;;;;;;;;;18.17;100.00;99394.88;5117517;28;20011;-57
2023/04/01 08:56:38;;;;;;;;;;;;;;;18.04;100.00;99401.75;5093935;28;19931;-59
2023/04/01 08:59:29;;;;;;;;;;;;;;;18.49;100.00;99407.09;5107633;28;19958;-59
2023/04/01 09:01:55;;;;;;;;;;;;;;;18.78;100.00;99413.59;5100624;28;19920;-56
2023/04/01 09:04:52;;;;;;;;;;;;;;;18.79;100.00;99417.94;5126189;28;19953;-59
2023/04/01 09:07:24;;;;;;;;;;;;;;;18.17;100.00;99421.94;5107739;28;19916;-59
2023/04/01 09:10:06;;;;;;;;;;;;;;;18.88;100.00;99424.34;5139767;27;19920;-58
2023/04/01 09:12:45;;;;;;;;;;;;;;;18.83;100.00;99426.31;5100651;28;19915;-59
2023/04/01 09:15:11;;;;;;;;;;;;;;;18.72;100.00;99439.13;5122330;28;19916;-59
2023/04/01 09:17:56;;;;;;;;;;;;;;;18.89;100.00;99436.00;5104491;28;19920;-59
2023/04/01 09:20:41;;;;;;;;;;;;;;;18.95;100.00;99437.56;5136273;27;19916;-59
2023/04/01 09:23:15;;;;;;;;;;;;;;;17.90;100.00;99438.59;5101735;28;19916;-59
2023/04/01 09:25:43;;;;;;;;;;;;;;;17.89;100.00;99447.81;5118447;28;19951;-59
2023/04/01 09:28:14;;;;;;;;;;;;;;;18.23;100.00;99451.69;5110293;28;19919;-58
2023/04/01 09:30:46;;;;;;;;;;;;;;;18.00;100.00;99457.47;5121138;28;19924;-58
2023/04/01 09:33:31;;;;;;;;;;;;;;;18.52;100.00;99459.06;5143084;27;19955;-58
2023/04/01 09:36:03;;;;;;;;;;;;;;;18.16;100.00;99462.81;5101080;28;19923;-59
2023/04/01 09:38:30;;;;;;;;;;;;;;;18.56;100.00;99462.81;5084817;28;20000;-55
2023/04/01 09:40:56;;;;;;;;;;;;;;;18.02;100.00;99463.44;5100114;28;19944;-59
2023/04/01 09:44:03;;;;;;;;;;;;;;;17.85;100.00;99469.16;5109875;28;19923;-57
2023/04/01 09:46:33;;;;;;;;;;;;;;;19.32;100.00;99479.47;5126083;28;19916;-57
2023/04/01 09:49:17;;;;;;;;;;;;;;;18.84;100.00;99479.38;5099270;28;19931;-58
2023/04/01 09:52:01;;;;;;;;;;;;;;;19.16;100.00;99478.06;5099061;28;19927;-56
2023/04/01 09:54:46;;;;;;;;;;;;;;;19.35;100.00;99484.31;5114008;28;19983;-58
2023/04/01 09:57:28;;;;;;;;;;;;;;;18.38;100.00;99483.25;5097879;28;19923;-57
2023/04/01 10:00:26;;;;;;;;;;;;;;;18.82;100.00;99495.09;5098772;28;19916;-56
2023/04/01 10:02:58;;;;;;;;;;;;;;;18.13;100.00;99485.81;5133161;27;19995;-58
2023/04/01 10:05:40;;;;;;;;;;;;;;;18.13;100.00;99491.22;5102835;28;19975;-58
2023/04/01 10:08:18;;;;;;;;;;;;;;;18.22;100.00;99486.03;5096457;28;19916;-58
2023/04/01 10:11:11;;;;;;;;;;;;;;;17.95;100.00;99494.53;5117101;28;19988;-59
2023/04/01 10:14:01;;;;;;;;;;;;;;;18.36;100.00;99499.75;5100806;28;19916;-56
2023/04/01 10:16:45;;;;;;;;;;;;;;;18.55;100.00;99491.78;5101070;28;19915;-59
2023/04/01 10:19:29;;;;;;;;;;;;;;;18.21;100.00;99506.06;5098565;28;19916;-58
2023/04/01 10:22:13;;;;;;;;;;;;;;;17.57;100.00;99505.75;5096382;28;19924;-57
2023/04/01 10:24:50;;;;;;;;;;;;;;;18.36;100.00;99510.59;5101592;28;19976;-59
2023/04/01 10:27:34;;;;;;;;;;;;;;;18.22;100.00;99512.28;5128479;27;19987;-57
2023/04/01 10:30:15;;;;;;;;;;;;;;;18.29;100.00;99507.38;5113455;28;19926;-58
2023/04/01 10:33:14;;;;;;;;;;;;;;;18.07;100.00;99503.19;5098331;28;19932;-59
2023/04/01 10:36:00;;;;;;;;;;;;;;;17.78;100.00;99501.13;5074262;28;19920;-57
2023/04/01 10:38:52;;;;;;;;;;;;;;;18.27;100.00;99506.88;5116436;28;19937;-58
2023/04/01 10:41:23;;;;;;;;;;;;;;;18.27;100.00;99512.28;5098099;28;19975;-57
2023/04/01 10:44:33;;;;;;;;;;;;;;;18.30;100.00;99511.72;5123927;28;19927;-56
2023/04/01 10:47:13;;;;;;;;;;;;;;;17.98;100.00;99511.03;5100512;28;19920;-58
2023/04/01 10:50:09;;;;;;;;;;;;;;;18.05;100.00;99514.25;5127621;27;19920;-59
2023/04/01 10:52:54;;;;;;;;;;;;;;;18.53;100.00;99526.44;5080412;28;19916;-55
2023/04/01 10:55:46;;;;;;;;;;;;;;;18.09;100.00;99527.22;5099327;28;19916;-59
2023/04/01 10:58:49;;;;;;;;;;;;;;;18.26;100.00;99527.69;5114040;28;19926;-58
2023/04/01 11:01:33;;;;;;;;;;;;;;;17.81;100.00;99532.19;5115180;28;19950;-57
2023/04/01 11:04:31;;;;;;;;;;;;;;;18.09;100.00;99538.88;5074621;28;19924;-60
2023/04/01 11:07:34;;;;;;;;;;;;;;;18.40;100.00;99537.91;5112215;28;19942;-58
2023/04/01 11:10:18;;;;;;;;;;;;;;;18.64;100.00;99538.00;5111679;28;19924;-59
2023/04/01 11:13:08;;;;;;;;;;;;;;;18.80;100.00;99540.63;5127289;27;19916;-56
2023/04/01 11:15:48;;;;;;;;;;;;;;;19.15;100.00;99552.31;5097824;28;19916;-59
2023/04/01 11:18:17;;;;;;;;;;;;;;;18.71;100.00;99554.78;5126190;27;19916;-59
2023/04/01 11:21:07;;;;;;;;;;;;;;;19.37;100.00;99559.13;5126828;27;19921;-59
2023/04/01 11:23:59;;;;;;;;;;;;;;;18.74;100.00;99559.63;5097091;28;19963;-59
2023/04/01 11:26:43;;;;;;;;;;;;;;;19.09;100.00;99564.25;5129389;27;19972;-58
2023/04/01 11:29:44;;;;;;;;;;;;;;;19.70;100.00;99568.28;5134367;27;20000;-58
2023/04/01 11:32:18;;;;;;;;;;;;;;;19.75;100.00;99570.97;5094353;28;19920;-59
2023/04/01 11:35:03;;;;;;;;;;;;;;;19.36;100.00;99580.03;5113406;28;19987;-59
2023/04/01 11:37:47;;;;;;;;;;;;;;;19.67;100.00;99584.34;5092596;28;19922;-59
2023/04/01 11:40:45;;;;;;;;;;;;;;;19.50;100.00;99588.28;5095510;28;20037;-60
2023/04/01 11:43:57;;;;;;;;;;;;;;;19.41;100.00;99592.72;5114961;28;19938;-59
2023/04/01 11:47:22;;;;;;;;;;;;;;;18.85;100.00;99592.84;5103898;28;19935;-58
2023/04/01 11:50:06;;;;;;;;;;;;;;;19.92;100.00;99592.22;5121700;28;19916;-60
2023/04/01 11:52:57;;;;;;;;;;;;;;;19.96;100.00;99592.47;5127128;28;21017;-59
2023/04/01 11:55:23;;;;;;;;;;;;;;;20.17;100.00;99598.44;5111056;28;19947;-57
2023/04/01 11:57:57;;;;;;;;;;;;;;;19.37;100.00;99607.91;5115059;28;19919;-60
2023/04/01 12:00:23;;;;;;;;;;;;;;;19.44;100.00;99608.41;5115397;28;19920;-60
2023/04/01 12:03:01;;;;;;;;;;;;;;;19.80;100.00;99613.47;5114617;28;19916;-60
2023/04/01 12:05:26;;;;;;;;;;;;;;;19.85;100.00;99618.88;5112598;28;19915;-56
2023/04/01 12:07:57;;;;;;;;;;;;;;;20.27;100.00;99618.41;5115781;28;19916;-59
2023/04/01 12:10:25;;;;;;;;;;;;;;;19.91;100.00;99628.59;5113184;28;19927;-57
2023/04/01 12:13:09;;;;;;;;;;;;;;;20.56;100.00;99628.38;5114306;28;19938;-56
2023/04/01 12:15:36;;;;;;;;;;;;;;;19.81;100.00;99631.38;5110492;28;19938;-55
2023/04/01 12:18:10;;;;;;;;;;;;;;;19.05;100.00;99621.72;5115433;28;19970;-57
2023/04/01 12:20:41;;;;;;;;;;;;;;;19.09;100.00;99634.69;5112651;28;19995;-56
2023/04/01 12:23:29;;;;;;;;;;;;;;;19.84;100.00;99640.84;5113963;28;19923;-58
2023/04/01 12:25:57;;;;;;;;;;;;;;;19.53;100.00;99633.00;5113413;28;19987;-57
2023/04/01 12:28:39;;;;;;;;;;;;;;;19.10;100.00;99637.16;5112773;28;19972;-61
2023/04/01 12:31:23;;;;;;;;;;;;;;;19.10;100.00;99636.31;5114125;28;19923;-60
2023/04/01 12:34:07;;;;;;;;;;;;;;;18.91;100.00;99631.53;5112954;28;19916;-59
2023/04/01 12:36:53;;;;;;;;;;;;;;;19.04;100.00;99630.94;5115691;28;19916;-60
2023/04/01 12:39:32;;;;;;;;;;;;;;;19.55;100.00;99641.66;5105541;28;19923;-59
2023/04/01 12:42:00;;;;;;;;;;;;;;;20.12;100.00;99641.94;5115324;28;19920;-59
2023/04/01 12:44:39;;;;;;;;;;;;;;;20.67;100.00;99654.28;5119458;28;19980;-59
2023/04/01 12:47:18;;;;;;;;;;;;;;;21.14;100.00;99656.38;5119364;28;19948;-60
2023/04/01 12:49:44;;;;;;;;;;;;;;;20.84;100.00;99664.69;5118628;28;19916;-60
2023/04/01 12:52:15;;;;;;;;;;;;;;;20.01;100.00;99660.25;5119363;28;19951;-60
2023/04/01 12:54:52;;;;;;;;;;;;;;;20.24;100.00;99663.25;5096232;28;19915;-59
2023/04/01 12:57:36;;;;;;;;;;;;;;;20.25;100.00;99664.88;5119674;28;19988;-60
2023/04/01 13:00:12;;;;;;;;;;;;;;;20.41;100.00;99668.19;5116057;28;19915;-59
2023/04/01 13:02:47;;;;;;;;;;;;;;;19.95;100.00;99671.44;5115525;28;19949;-58
2023/04/01 13:05:15;;;;;;;;;;;;;;;20.31;100.00;99690.06;5115142;28;19916;-60
2023/04/01 13:07:47;;;;;;;;;;;;;;;20.46;100.00;99687.13;5114603;28;19916;-58
2023/04/01 13:10:13;;;;;;;;;;;;;;;20.82;100.00;99695.97;5118350;28;19931;-60
2023/04/01 13:12:48;;;;;;;;;;;;;;;20.81;100.00;99699.78;5121056;28;19939;-59
2023/04/01 13:15:26;;;;;;;;;;;;;;;20.87;100.00;99702.13;5125291;28;19923;-58